AYNZ/LAE METAR and TAF weather

Enter ICAO airport designator
Station Type Date Time Source
AYNZ METAR 2020/01/20 09:00 UTC NOAA

AYNZ 200900Z 07009KT 9999 SCT060 29/24 Q1007=


Station Type Date Time Source
AYNZ Decoded METAR 2020/01/20 09:00 UTC NOAA

Station name not available
Jan 20, 2020 - 04:00 AM EST / 2020.01.20 0900 UTC
Wind: from the ENE (070 degrees) at 10 MPH (9 KT):0
Visibility: greater than 7 mile(s):0
Sky conditions: partly cloudy
Temperature: 84 F (29 C)
Dew Point: 75 F (24 C)
Relative Humidity: 74%
Pressure (altimeter): 29.74 in. Hg (1007 hPa)
ob: AYNZ 200900Z 07009KT 9999 SCT060 29/24 Q1007=
cycle: 9

Station Type Date Time Source
AYNZ TAF 2015/08/19 08:15 UTC NOAA

TAF AYNZ 190550Z 1908/1920 09015KT 9999 SCT020 SCT120
FM191400 VRB03KT 9999 BKN040 Q 1011 1014 1013 1010

Example: see airport list